CWCA

Cartwright Airport

Cartwright, Canada

CWCA 190800Z 18003KT 150V220 15SM OVC010 05/05 A3005 RMK ST8 SLP178

Observed Flight Rules
Aug-19 @ 08:00 UTC (an hour ago)
 
Marginal Visual Flight Rules
Wind Visibility Clouds
180° at 3 knots 15 miles
  • Overcast at 1,000' AGL
Temperatures Readings
Current 5°C / 41°F
Dewpoint 5°C / 41°F
Humidity 100%
Altimeter 30.05" Hg
Pressure 1017.8 hPa
Elevation 14
Observed Flight Rules
Aug-19 @ 08:00 UTC
(an hour ago)
 
MVFR
Wind Visibility
180° at 3 knots 15 miles
Clouds
  • Overcast at 1,000' AGL
Temperature Dewpoint
5°C / 41°F 5°C / 41°F
Humidity Altimeter Pressure
100% 30.05" Hg 1017.8 hPa